createdAt,value
2022-08-26T00:01:18.807Z,100656.88
2022-08-26T00:03:31.544Z,100657.91
2022-08-26T00:05:35.978Z,100647.06
2022-08-26T00:07:39.120Z,100648.72
2022-08-26T00:09:41.585Z,100649.97
2022-08-26T00:11:49.652Z,100647.91
2022-08-26T00:14:02.660Z,100656.00
2022-08-26T00:16:08.332Z,100646.84
2022-08-26T00:18:21.730Z,100656.38
2022-08-26T00:20:28.655Z,100658.91
2022-08-26T00:22:30.648Z,100655.75
2022-08-26T00:24:33.831Z,100656.81
2022-08-26T00:26:37.381Z,100652.84
2022-08-26T00:28:40.949Z,100650.16
2022-08-26T00:30:43.000Z,100652.44
2022-08-26T00:32:48.796Z,100645.94
2022-08-26T00:34:50.770Z,100645.13
2022-08-26T00:36:52.800Z,100648.78
2022-08-26T00:38:54.853Z,100654.78
2022-08-26T00:40:57.774Z,100648.16
2022-08-26T00:43:02.769Z,100648.56
2022-08-26T00:45:11.658Z,100647.97
2022-08-26T00:47:31.001Z,100643.59
2022-08-26T00:49:40.956Z,100654.81
2022-08-26T00:51:55.256Z,100650.19
2022-08-26T00:54:10.817Z,100660.25
2022-08-26T00:56:22.680Z,100658.59
2022-08-26T00:58:28.222Z,100655.69
2022-08-26T01:00:32.328Z,100649.25
2022-08-26T01:02:34.355Z,100649.03
2022-08-26T01:04:42.180Z,100656.91
2022-08-26T01:06:45.668Z,100658.16
2022-08-26T01:08:47.598Z,100657.97
2022-08-26T01:10:49.888Z,100654.94
2022-08-26T01:13:01.758Z,100660.59
2022-08-26T01:15:06.227Z,100655.56
2022-08-26T01:17:09.767Z,100657.84
2022-08-26T01:19:21.917Z,100660.56
2022-08-26T01:21:36.260Z,100664.72
2022-08-26T01:23:48.064Z,100664.47
2022-08-26T01:25:55.228Z,100662.13
2022-08-26T01:28:09.225Z,100657.03
2022-08-26T01:30:13.475Z,100662.84
2022-08-26T01:32:19.810Z,100657.44
2022-08-26T01:34:29.109Z,100661.44
2022-08-26T01:36:31.583Z,100661.00
2022-08-26T01:38:33.796Z,100662.28
2022-08-26T01:40:39.658Z,100664.13
2022-08-26T01:42:42.735Z,100663.16
2022-08-26T01:45:11.431Z,100658.41
2022-08-26T01:47:16.655Z,100657.94
2022-08-26T01:49:26.144Z,100663.72
2022-08-26T01:51:29.668Z,100663.03
2022-08-26T01:53:32.227Z,100670.84
2022-08-26T01:55:34.799Z,100662.09
2022-08-26T01:57:37.345Z,100666.09
2022-08-26T01:59:39.335Z,100661.94
2022-08-26T02:01:43.037Z,100658.69
2022-08-26T02:04:05.903Z,100663.44
2022-08-26T02:06:09.431Z,100666.31
2022-08-26T02:08:13.462Z,100676.25
2022-08-26T02:10:16.183Z,100666.63
2022-08-26T02:12:26.384Z,100671.41
2022-08-26T02:14:43.611Z,100670.41
2022-08-26T02:16:50.612Z,100666.84
2022-08-26T02:18:54.372Z,100661.25
2022-08-26T02:20:57.465Z,100663.69
2022-08-26T02:23:00.485Z,100664.16
2022-08-26T02:25:27.264Z,100664.38
2022-08-26T02:27:33.383Z,100668.97
2022-08-26T02:29:43.732Z,100664.59
2022-08-26T02:31:49.931Z,100675.13
2022-08-26T02:33:51.913Z,100669.38
2022-08-26T02:35:53.825Z,100658.25
2022-08-26T02:37:55.776Z,100662.13
2022-08-26T02:40:00.336Z,100657.63
2022-08-26T02:42:02.338Z,100664.47
2022-08-26T02:44:04.639Z,100666.91
2022-08-26T02:46:06.764Z,100668.03
2022-08-26T02:48:16.886Z,100661.44
2022-08-26T02:50:20.987Z,100659.53
2022-08-26T02:52:23.942Z,100658.69
2022-08-26T02:54:27.030Z,100661.34
2022-08-26T02:56:33.450Z,100657.06
2022-08-26T02:58:37.480Z,100655.44
2022-08-26T03:00:52.900Z,100653.84
2022-08-26T03:02:55.644Z,100653.56
2022-08-26T03:05:01.912Z,100651.66
2022-08-26T03:07:04.967Z,100657.66
2022-08-26T03:09:08.717Z,100651.19
2022-08-26T03:11:11.826Z,100648.69
2022-08-26T03:13:14.608Z,100653.56
2022-08-26T03:15:18.544Z,100650.84
2022-08-26T03:17:21.580Z,100651.03
2022-08-26T03:19:25.935Z,100648.97
2022-08-26T03:21:32.135Z,100648.97
2022-08-26T03:23:38.198Z,100645.78
2022-08-26T03:25:40.410Z,100654.09
2022-08-26T03:27:43.667Z,100643.50
2022-08-26T03:30:05.229Z,100644.31
2022-08-26T03:32:07.214Z,100652.06
2022-08-26T03:34:09.876Z,100652.88
2022-08-26T03:36:13.232Z,100661.97
2022-08-26T03:38:21.169Z,100653.66
2022-08-26T03:40:23.397Z,100645.66
2022-08-26T03:42:25.448Z,100651.28
2022-08-26T03:44:29.068Z,100645.75
2022-08-26T03:46:33.402Z,100650.78
2022-08-26T03:48:36.973Z,100644.09
2022-08-26T03:50:39.135Z,100643.44
2022-08-26T03:52:44.039Z,100642.66
2022-08-26T03:54:46.156Z,100640.59
2022-08-26T03:56:49.197Z,100637.91
2022-08-26T03:58:57.162Z,100642.75
2022-08-26T04:01:01.089Z,100638.38
2022-08-26T04:03:04.982Z,100638.16
2022-08-26T04:05:07.509Z,100643.84
2022-08-26T04:07:15.808Z,100640.75
2022-08-26T04:09:21.280Z,100645.63
2022-08-26T04:11:26.986Z,100639.50
2022-08-26T04:13:29.849Z,100637.28
2022-08-26T04:15:31.784Z,100642.44
2022-08-26T04:17:36.080Z,100645.84
2022-08-26T04:19:37.936Z,100639.22
2022-08-26T04:21:41.513Z,100635.84
2022-08-26T04:23:47.567Z,100637.34
2022-08-26T04:25:51.509Z,100637.00
2022-08-26T04:27:53.475Z,100626.63
2022-08-26T04:29:55.534Z,100625.63
2022-08-26T04:31:59.740Z,100628.13
2022-08-26T04:34:01.737Z,100625.41
2022-08-26T04:36:05.716Z,100619.13
2022-08-26T04:38:07.660Z,100628.13
2022-08-26T04:40:12.241Z,100625.59
2022-08-26T04:42:15.840Z,100619.75
2022-08-26T04:44:25.179Z,100622.47
2022-08-26T04:46:27.028Z,100629.34
2022-08-26T04:48:30.636Z,100628.47
2022-08-26T04:50:32.874Z,100624.72
2022-08-26T04:52:36.460Z,100624.72
2022-08-26T04:54:38.854Z,100632.84
2022-08-26T04:56:49.242Z,100632.03
2022-08-26T04:58:51.179Z,100642.88
2022-08-26T05:00:55.598Z,100632.44
2022-08-26T05:02:57.517Z,100630.78
2022-08-26T05:04:59.461Z,100633.47
2022-08-26T05:07:02.737Z,100631.25
2022-08-26T05:09:06.821Z,100620.34
2022-08-26T05:11:09.869Z,100609.28
2022-08-26T05:13:16.483Z,100606.13
2022-08-26T05:15:18.713Z,100603.66
2022-08-26T05:17:20.847Z,100598.22
2022-08-26T05:19:23.925Z,100599.66
2022-08-26T05:21:29.246Z,100598.44
2022-08-26T05:23:34.128Z,100593.97
2022-08-26T05:25:42.250Z,100592.47
2022-08-26T05:27:44.775Z,100589.50
2022-08-26T05:29:48.634Z,100599.78
2022-08-26T05:31:56.456Z,100597.53
2022-08-26T05:33:59.616Z,100599.09
2022-08-26T05:36:17.327Z,100598.25
2022-08-26T05:38:21.839Z,100603.94
2022-08-26T05:40:23.825Z,100601.94
2022-08-26T05:42:28.735Z,100608.22
2022-08-26T05:44:53.526Z,100609.16
2022-08-26T05:46:52.748Z,100610.34
2022-08-26T05:48:59.092Z,100610.75
2022-08-26T05:51:08.770Z,100617.88
2022-08-26T05:53:13.005Z,100619.28
2022-08-26T05:55:18.190Z,100613.91
2022-08-26T05:57:20.435Z,100600.72
2022-08-26T05:59:27.448Z,100604.50
2022-08-26T06:01:29.937Z,100597.78
2022-08-26T06:03:34.223Z,100597.72
2022-08-26T06:05:40.481Z,100595.00
2022-08-26T06:08:01.077Z,100595.00
2022-08-26T06:10:30.426Z,100587.81
2022-08-26T06:12:25.223Z,100585.25
2022-08-26T06:14:27.258Z,100588.59
2022-08-26T06:16:30.728Z,100581.75
2022-08-26T06:18:37.216Z,100581.13
2022-08-26T06:20:43.874Z,100587.16
2022-08-26T06:23:17.227Z,100585.16
2022-08-26T06:25:37.922Z,100592.91
2022-08-26T06:27:51.220Z,100596.13
2022-08-26T06:29:55.021Z,100598.78
2022-08-26T06:31:58.540Z,100596.44
2022-08-26T06:34:10.509Z,100601.69
2022-08-26T06:36:32.420Z,100593.84
2022-08-26T06:38:42.258Z,100590.63
2022-08-26T06:40:51.373Z,100592.94
2022-08-26T06:42:53.362Z,100591.19
2022-08-26T06:44:57.650Z,100593.31
2022-08-26T06:47:00.612Z,100585.53
2022-08-26T06:49:04.109Z,100584.81
2022-08-26T06:51:13.405Z,100581.56
2022-08-26T06:53:17.348Z,100583.75
2022-08-26T06:55:20.432Z,100592.22
2022-08-26T06:57:33.039Z,100579.34
2022-08-26T06:59:42.832Z,100577.09
2022-08-26T07:01:45.323Z,100582.88
2022-08-26T07:03:48.803Z,100580.16
2022-08-26T07:05:51.033Z,100578.81
2022-08-26T07:07:58.459Z,100577.13
2022-08-26T07:10:00.336Z,100588.72
2022-08-26T07:12:04.404Z,100575.69
2022-08-26T07:14:07.900Z,100574.34
2022-08-26T07:16:14.650Z,100571.63
2022-08-26T07:18:17.505Z,100577.84
2022-08-26T07:20:19.636Z,100579.88
2022-08-26T07:22:22.637Z,100573.19
2022-08-26T07:24:28.525Z,100578.78
2022-08-26T07:26:31.835Z,100574.09
2022-08-26T07:28:38.216Z,100571.56
2022-08-26T07:30:42.277Z,100572.00
2022-08-26T07:32:45.686Z,100576.44
2022-08-26T07:34:49.638Z,100563.66
2022-08-26T07:37:02.007Z,100574.97
2022-08-26T07:39:09.883Z,100562.81
2022-08-26T07:41:13.591Z,100572.78
2022-08-26T07:43:15.962Z,100567.13
2022-08-26T07:45:20.056Z,100565.34
2022-08-26T07:47:26.076Z,100569.84
2022-08-26T07:49:29.956Z,100563.06
2022-08-26T07:51:32.220Z,100562.47
2022-08-26T07:53:35.540Z,100560.16
2022-08-26T07:55:37.748Z,100556.72
2022-08-26T07:57:39.968Z,100552.00
2022-08-26T07:59:42.954Z,100555.03
2022-08-26T08:01:46.965Z,100547.41
2022-08-26T08:03:54.018Z,100546.22
2022-08-26T08:05:57.523Z,100541.63
2022-08-26T08:08:21.846Z,100552.94
2022-08-26T08:10:29.027Z,100551.22
2022-08-26T08:12:31.150Z,100548.19
2022-08-26T08:14:36.746Z,100553.81
2022-08-26T08:16:41.563Z,100550.25
2022-08-26T08:18:48.120Z,100553.19
2022-08-26T08:20:59.005Z,100547.94
2022-08-26T08:23:07.209Z,100547.63
2022-08-26T08:25:10.658Z,100551.34
2022-08-26T08:27:14.456Z,100542.88
2022-08-26T08:29:16.400Z,100549.59
2022-08-26T08:31:45.066Z,100543.63
2022-08-26T08:33:48.122Z,100544.50
2022-08-26T08:35:50.654Z,100542.53
2022-08-26T08:37:55.673Z,100538.16
2022-08-26T08:40:05.655Z,100543.75
2022-08-26T08:42:36.114Z,100533.94
2022-08-26T08:44:43.994Z,100536.41
2022-08-26T08:46:51.037Z,100532.13
2022-08-26T08:49:00.092Z,100535.66
2022-08-26T08:51:04.814Z,100539.63
2022-08-26T08:53:23.452Z,100533.03
2022-08-26T08:55:35.658Z,100523.72
2022-08-26T08:57:53.634Z,100528.91
2022-08-26T09:00:04.878Z,100523.56
2022-08-26T09:02:48.043Z,100530.44
2022-08-26T09:05:03.236Z,100533.47
2022-08-26T09:07:12.690Z,100526.19
2022-08-26T09:09:41.292Z,100528.50
2022-08-26T09:11:43.644Z,100524.19
2022-08-26T09:13:53.171Z,100523.94
2022-08-26T09:16:14.161Z,100520.34
2022-08-26T09:18:25.358Z,100516.84
2022-08-26T09:21:06.372Z,100516.78
2022-08-26T09:23:12.920Z,100523.44
2022-08-26T09:25:15.623Z,100526.06
2022-08-26T09:27:44.905Z,100520.13
2022-08-26T09:29:50.488Z,100526.56
2022-08-26T09:32:25.200Z,100525.81
2022-08-26T09:34:28.408Z,100523.16
2022-08-26T09:36:41.228Z,100519.88
2022-08-26T09:38:45.253Z,100516.91
2022-08-26T09:41:05.364Z,100520.72
2022-08-26T09:43:22.333Z,100512.00
2022-08-26T09:45:29.355Z,100519.88
2022-08-26T09:47:41.717Z,100503.28
2022-08-26T09:49:44.879Z,100507.41
2022-08-26T09:51:50.065Z,100509.69
2022-08-26T09:54:03.437Z,100511.72
2022-08-26T09:56:30.031Z,100499.00
2022-08-26T09:58:41.942Z,100500.59
2022-08-26T10:01:06.754Z,100498.03
2022-08-26T10:03:24.811Z,100501.53
2022-08-26T10:06:00.482Z,100500.78
2022-08-26T10:08:27.654Z,100500.88
2022-08-26T10:10:35.417Z,100500.28
2022-08-26T10:12:44.864Z,100493.41
2022-08-26T10:14:52.288Z,100498.66
2022-08-26T10:17:23.997Z,100491.16
2022-08-26T10:19:55.852Z,100494.06
2022-08-26T10:22:05.545Z,100490.50
2022-08-26T10:24:11.333Z,100496.69
2022-08-26T10:26:49.797Z,100489.91
2022-08-26T10:29:10.450Z,100491.50
2022-08-26T10:31:45.179Z,100496.31
2022-08-26T10:33:50.107Z,100491.91
2022-08-26T10:35:56.900Z,100491.41
2022-08-26T10:38:04.937Z,100491.03
2022-08-26T10:40:23.533Z,100489.00
2022-08-26T10:42:39.311Z,100482.13
2022-08-26T10:44:45.383Z,100498.94
2022-08-26T10:46:57.811Z,100493.72
2022-08-26T10:49:06.719Z,100485.19
2022-08-26T10:51:12.833Z,100476.59
2022-08-26T10:53:36.837Z,100472.81
2022-08-26T10:55:43.856Z,100470.66
2022-08-26T10:57:58.974Z,100470.50
2022-08-26T11:00:44.153Z,100473.91
2022-08-26T11:02:51.765Z,100465.28
2022-08-26T11:05:05.765Z,100457.75
2022-08-26T11:07:40.653Z,100461.22
2022-08-26T11:09:47.273Z,100466.25
2022-08-26T11:11:53.020Z,100468.25
2022-08-26T11:14:01.644Z,100454.81
2022-08-26T11:16:04.089Z,100461.09
2022-08-26T11:18:11.224Z,100452.34
2022-08-26T11:20:46.029Z,100448.19
2022-08-26T11:22:54.803Z,100440.75
2022-08-26T11:24:56.768Z,100444.22
2022-08-26T11:26:58.778Z,100440.34
2022-08-26T11:29:03.168Z,100440.38
2022-08-26T11:31:10.311Z,100431.34
2022-08-26T11:33:52.574Z,100430.81
2022-08-26T11:35:56.287Z,100429.94
2022-08-26T11:38:18.810Z,100430.53
2022-08-26T11:40:27.301Z,100427.84
2022-08-26T11:42:36.018Z,100428.81
2022-08-26T11:44:49.222Z,100425.75
2022-08-26T11:46:59.887Z,100425.22
2022-08-26T11:49:05.607Z,100418.56
2022-08-26T11:51:21.361Z,100414.91
2022-08-26T11:53:26.112Z,100414.97
2022-08-26T11:55:30.707Z,100413.38
2022-08-26T11:57:35.547Z,100414.22
2022-08-26T11:59:41.336Z,100413.38
2022-08-26T12:01:52.137Z,100409.94
2022-08-26T12:03:54.677Z,100403.88
2022-08-26T12:06:00.462Z,100404.94
2022-08-26T12:08:09.060Z,100403.38
2022-08-26T12:10:30.843Z,100408.72
2022-08-26T12:12:36.154Z,100404.22
2022-08-26T12:14:39.696Z,100394.94
2022-08-26T12:16:42.099Z,100390.53
2022-08-26T12:18:47.399Z,100383.09
2022-08-26T12:20:54.210Z,100379.88
2022-08-26T12:22:59.128Z,100383.19
2022-08-26T12:25:05.558Z,100378.81
2022-08-26T12:27:21.881Z,100376.03
2022-08-26T12:29:28.571Z,100381.75
2022-08-26T12:31:34.760Z,100370.78
2022-08-26T12:33:38.935Z,100369.53
2022-08-26T12:35:42.286Z,100372.28
2022-08-26T12:37:50.643Z,100363.41
2022-08-26T12:39:53.252Z,100365.31
2022-08-26T12:41:58.385Z,100370.22
2022-08-26T12:44:00.415Z,100356.78
2022-08-26T12:46:06.625Z,100360.59
2022-08-26T12:48:15.827Z,100364.69
2022-08-26T12:50:23.192Z,100352.19
2022-08-26T12:52:30.445Z,100342.47
2022-08-26T12:54:56.565Z,100350.38
2022-08-26T12:57:10.454Z,100354.06
2022-08-26T12:59:23.351Z,100342.91
2022-08-26T13:01:41.312Z,100341.03
2022-08-26T13:03:46.491Z,100339.81
2022-08-26T13:05:51.562Z,100336.00
2022-08-26T13:08:24.841Z,100335.31
2022-08-26T13:10:40.466Z,100328.75
2022-08-26T13:12:43.464Z,100328.66
2022-08-26T13:14:45.389Z,100330.09
2022-08-26T13:16:47.665Z,100317.75
2022-08-26T13:18:52.150Z,100318.00
2022-08-26T13:20:54.177Z,100322.03
2022-08-26T13:22:58.973Z,100328.63
2022-08-26T13:25:12.968Z,100323.41
2022-08-26T13:27:15.309Z,100322.47
2022-08-26T13:29:18.307Z,100322.41
2022-08-26T13:31:20.899Z,100313.78
2022-08-26T13:33:29.031Z,100304.38
2022-08-26T13:35:32.021Z,100315.94
2022-08-26T13:37:34.995Z,100312.56
2022-08-26T13:39:38.419Z,100316.75
2022-08-26T13:41:40.471Z,100312.44
2022-08-26T13:43:42.419Z,100308.34
2022-08-26T13:45:45.376Z,100304.13
2022-08-26T13:47:53.590Z,100305.19
2022-08-26T13:49:56.626Z,100303.03
2022-08-26T13:51:58.643Z,100300.25
2022-08-26T13:54:00.984Z,100296.66
2022-08-26T13:56:04.436Z,100299.44
2022-08-26T13:58:08.494Z,100286.72
2022-08-26T14:00:12.266Z,100295.25
2022-08-26T14:02:15.603Z,100293.19
2022-08-26T14:04:27.357Z,100292.97
2022-08-26T14:06:30.265Z,100285.75
2022-08-26T14:08:32.896Z,100291.19
2022-08-26T14:10:37.171Z,100291.88
2022-08-26T14:12:45.933Z,100288.66
2022-08-26T14:14:48.419Z,100289.91
2022-08-26T14:16:59.125Z,100282.31
2022-08-26T14:19:04.139Z,100284.91
2022-08-26T14:21:09.092Z,100278.56
2022-08-26T14:23:19.643Z,100274.66
2022-08-26T14:25:23.070Z,100283.47
2022-08-26T14:27:25.721Z,100284.78
2022-08-26T14:29:27.888Z,100282.03
2022-08-26T14:31:33.244Z,100281.91
2022-08-26T14:33:38.342Z,100288.78
2022-08-26T14:35:41.275Z,100275.59
2022-08-26T14:37:51.832Z,100271.88
2022-08-26T14:39:54.081Z,100268.19
2022-08-26T14:41:57.187Z,100261.03
2022-08-26T14:44:03.479Z,100264.59
2022-08-26T14:46:05.748Z,100272.38
2022-08-26T14:48:08.994Z,100270.03
2022-08-26T14:50:14.644Z,100272.81
2022-08-26T14:52:17.536Z,100267.69
2022-08-26T14:54:21.813Z,100261.94
2022-08-26T14:56:24.434Z,100266.97
2022-08-26T14:58:26.434Z,100267.47
2022-08-26T15:00:36.565Z,100257.94
2022-08-26T15:02:39.703Z,100265.47
2022-08-26T15:04:42.804Z,100264.47
2022-08-26T15:06:53.463Z,100259.22
2022-08-26T15:08:55.626Z,100263.75
2022-08-26T15:11:01.583Z,100261.19
2022-08-26T15:13:03.579Z,100262.31
2022-08-26T15:15:15.436Z,100258.91
2022-08-26T15:17:17.836Z,100252.47
2022-08-26T15:19:20.593Z,100262.19
2022-08-26T15:21:24.463Z,100257.50
2022-08-26T15:23:27.426Z,100255.84
2022-08-26T15:25:29.978Z,100251.84
2022-08-26T15:27:32.764Z,100244.16
2022-08-26T15:29:39.322Z,100250.72
2022-08-26T15:31:41.327Z,100242.44
2022-08-26T15:33:44.479Z,100244.06
2022-08-26T15:35:46.505Z,100246.00
2022-08-26T15:39:57.161Z,100244.56
2022-08-26T15:42:01.306Z,100241.19
2022-08-26T15:44:06.019Z,100246.09
2022-08-26T15:46:12.005Z,100241.78
2022-08-26T15:48:16.155Z,100247.56
2022-08-26T15:50:18.399Z,100237.72
2022-08-26T15:52:21.565Z,100244.34
2022-08-26T15:54:24.145Z,100240.25
2022-08-26T15:56:27.832Z,100241.78
2022-08-26T15:58:30.461Z,100230.13
2022-08-26T16:00:33.002Z,100236.47
2022-08-26T16:02:35.055Z,100236.03
2022-08-26T16:04:39.348Z,100242.38
2022-08-26T16:06:42.739Z,100235.00
2022-08-26T16:08:47.912Z,100227.34
2022-08-26T16:10:50.854Z,100235.91
2022-08-26T16:12:54.203Z,100226.59
2022-08-26T16:14:57.596Z,100232.25
2022-08-26T16:16:59.628Z,100230.69
2022-08-26T16:19:06.845Z,100221.56
2022-08-26T16:21:14.667Z,100233.41
2022-08-26T16:23:17.904Z,100229.00
2022-08-26T16:25:21.166Z,100235.06
2022-08-26T16:27:25.300Z,100221.78
2022-08-26T16:29:27.636Z,100231.47
2022-08-26T16:31:29.732Z,100222.97
2022-08-26T16:33:33.886Z,100228.81
2022-08-26T16:35:35.988Z,100229.69
2022-08-26T16:37:39.460Z,100231.03
2022-08-26T16:39:45.048Z,100231.03
2022-08-26T16:41:47.312Z,100230.50
2022-08-26T16:43:49.789Z,100232.38
2022-08-26T16:45:52.921Z,100232.31
2022-08-26T16:47:55.461Z,100221.59
2022-08-26T16:49:57.523Z,100230.25
2022-08-26T16:52:02.700Z,100231.22
2022-08-26T16:54:10.010Z,100238.97
2022-08-26T16:56:20.221Z,100233.81
2022-08-26T16:58:22.471Z,100237.81
2022-08-26T17:00:30.509Z,100234.81
2022-08-26T17:02:34.498Z,100227.72
2022-08-26T17:04:46.213Z,100233.53
2022-08-26T17:06:49.284Z,100229.56
2022-08-26T17:08:51.269Z,100237.91
2022-08-26T17:10:54.851Z,100242.34
2022-08-26T17:12:57.357Z,100243.78
2022-08-26T17:14:59.512Z,100237.53
2022-08-26T17:17:06.645Z,100241.69
2022-08-26T17:19:08.743Z,100242.56
2022-08-26T17:21:13.412Z,100239.06
2022-08-26T17:23:18.506Z,100238.59
2022-08-26T17:25:29.792Z,100245.84
2022-08-26T17:27:31.861Z,100253.78
2022-08-26T17:29:34.364Z,100243.91
2022-08-26T17:31:36.320Z,100248.91
2022-08-26T17:33:39.528Z,100248.34
2022-08-26T17:35:41.586Z,100246.78
2022-08-26T17:37:47.027Z,100248.19
2022-08-26T17:39:50.047Z,100249.38
2022-08-26T17:41:52.161Z,100244.13
2022-08-26T17:43:57.665Z,100248.94
2022-08-26T17:46:10.497Z,100245.97
2022-08-26T17:48:15.808Z,100248.69
2022-08-26T17:50:18.556Z,100249.31
2022-08-26T17:52:21.769Z,100251.56
2022-08-26T17:54:26.317Z,100246.31
2022-08-26T17:56:33.567Z,100259.03
2022-08-26T17:58:56.836Z,100254.91
2022-08-26T18:00:59.004Z,100253.81
2022-08-26T18:03:24.584Z,100250.81
2022-08-26T18:05:29.130Z,100250.56
2022-08-26T18:07:37.732Z,100251.97
2022-08-26T18:09:46.312Z,100249.25
2022-08-26T18:11:48.294Z,100251.47
2022-08-26T18:13:55.919Z,100253.13
2022-08-26T18:15:57.986Z,100253.94
2022-08-26T18:18:02.754Z,100255.09
2022-08-26T18:20:06.173Z,100254.84
2022-08-26T18:22:15.703Z,100262.44
2022-08-26T18:24:18.686Z,100258.25
2022-08-26T18:26:25.984Z,100259.88
2022-08-26T18:28:30.627Z,100258.97
2022-08-26T18:30:35.672Z,100257.81
2022-08-26T18:32:42.364Z,100264.31
2022-08-26T18:34:44.390Z,100260.81
2022-08-26T18:36:52.868Z,100262.47
2022-08-26T18:38:55.783Z,100264.22
2022-08-26T18:41:10.218Z,100270.03
2022-08-26T18:43:36.504Z,100275.53
2022-08-26T18:45:41.262Z,100273.75
2022-08-26T18:47:44.089Z,100276.34
2022-08-26T18:49:47.603Z,100276.69
2022-08-26T18:51:53.163Z,100269.94
2022-08-26T18:53:56.211Z,100271.81
2022-08-26T18:56:01.255Z,100267.13
2022-08-26T18:58:05.630Z,100274.66
2022-08-26T19:00:14.321Z,100271.06
2022-08-26T19:02:16.636Z,100273.00
2022-08-26T19:04:18.936Z,100272.09
2022-08-26T19:06:28.477Z,100269.03
2022-08-26T19:08:39.066Z,100272.00
2022-08-26T19:10:52.883Z,100276.34
2022-08-26T19:13:02.640Z,100271.09
2022-08-26T19:15:06.266Z,100279.56
2022-08-26T19:17:14.643Z,100273.59
2022-08-26T19:19:18.631Z,100272.94
2022-08-26T19:21:25.860Z,100276.78
2022-08-26T19:23:31.969Z,100278.81
2022-08-26T19:25:34.553Z,100280.47
2022-08-26T19:27:37.866Z,100273.03
2022-08-26T19:29:40.177Z,100278.22
2022-08-26T19:31:44.031Z,100286.72
2022-08-26T19:33:48.826Z,100276.19
2022-08-26T19:35:53.430Z,100275.19
2022-08-26T19:37:55.575Z,100280.75
2022-08-26T19:39:58.876Z,100281.13
2022-08-26T19:42:02.361Z,100287.22
2022-08-26T19:44:07.834Z,100292.41
2022-08-26T19:46:20.456Z,100282.63
2022-08-26T19:48:29.379Z,100281.78
2022-08-26T19:50:34.241Z,100283.72
2022-08-26T19:52:37.012Z,100284.50
2022-08-26T19:54:40.154Z,100290.03
2022-08-26T19:56:44.181Z,100288.53
2022-08-26T19:58:56.118Z,100291.28
2022-08-26T20:01:00.240Z,100283.59
2022-08-26T20:03:05.695Z,100291.66
2022-08-26T20:05:11.824Z,100297.22
2022-08-26T20:07:18.902Z,100295.94
2022-08-26T20:09:26.249Z,100285.50
2022-08-26T20:11:28.441Z,100293.91
2022-08-26T20:13:30.920Z,100290.56
2022-08-26T20:15:33.251Z,100292.16
2022-08-26T20:17:35.516Z,100295.00
2022-08-26T20:19:56.386Z,100290.38
2022-08-26T20:21:58.647Z,100294.13
2022-08-26T20:24:07.824Z,100286.69
2022-08-26T20:26:10.266Z,100302.47
2022-08-26T20:28:15.397Z,100290.56
2022-08-26T20:30:25.579Z,100286.78
2022-08-26T20:32:31.556Z,100291.63
2022-08-26T20:34:36.927Z,100281.84
2022-08-26T20:36:41.698Z,100290.72
2022-08-26T20:38:45.484Z,100294.53
2022-08-26T20:40:51.592Z,100308.34
2022-08-26T20:43:01.345Z,100295.66
2022-08-26T20:45:04.525Z,100306.34
2022-08-26T20:47:07.489Z,100303.63
2022-08-26T20:49:09.958Z,100307.66
2022-08-26T20:51:12.562Z,100311.94
2022-08-26T20:53:16.545Z,100316.19
2022-08-26T20:55:19.442Z,100315.47
2022-08-26T20:57:22.670Z,100311.47
2022-08-26T20:59:25.513Z,100314.72
2022-08-26T21:01:34.757Z,100325.84
2022-08-26T21:03:37.222Z,100326.72
2022-08-26T21:05:39.325Z,100320.59
2022-08-26T21:07:47.233Z,100324.88
2022-08-26T21:09:51.602Z,100329.72
2022-08-26T21:11:57.908Z,100324.78
2022-08-26T21:14:06.929Z,100332.59
2022-08-26T21:16:18.192Z,100327.78
2022-08-26T21:18:20.296Z,100322.94
2022-08-26T21:20:22.290Z,100330.13
2022-08-26T21:22:25.276Z,100324.59
2022-08-26T21:24:28.999Z,100341.81
2022-08-26T21:26:32.055Z,100328.56
2022-08-26T21:28:39.547Z,100324.53
2022-08-26T21:30:41.744Z,100328.84
2022-08-26T21:32:46.891Z,100324.59
2022-08-26T21:34:48.887Z,100326.25
2022-08-26T21:36:51.946Z,100324.06
2022-08-26T21:38:59.132Z,100327.84
2022-08-26T21:41:07.256Z,100322.91
2022-08-26T21:43:22.706Z,100330.09
2022-08-26T21:45:43.186Z,100328.72
2022-08-26T21:47:48.034Z,100325.00
2022-08-26T21:49:50.632Z,100319.41
2022-08-26T21:51:53.737Z,100316.41
2022-08-26T21:53:58.191Z,100309.97
2022-08-26T21:56:05.738Z,100316.19
2022-08-26T21:58:08.082Z,100314.56
2022-08-26T22:00:13.394Z,100309.28
2022-08-26T22:02:15.952Z,100315.31
2022-08-26T22:04:18.405Z,100309.41
2022-08-26T22:06:23.233Z,100296.31
2022-08-26T22:08:28.040Z,100302.94
2022-08-26T22:10:30.169Z,100300.44
2022-08-26T22:12:33.154Z,100303.75
2022-08-26T22:14:35.199Z,100309.78
2022-08-26T22:16:37.589Z,100322.25
2022-08-26T22:18:45.882Z,100328.09
2022-08-26T22:20:48.850Z,100317.94
2022-08-26T22:22:50.775Z,100315.38
2022-08-26T22:24:53.797Z,100335.13
2022-08-26T22:26:57.190Z,100328.78
2022-08-26T22:29:00.550Z,100331.06
2022-08-26T22:31:02.915Z,100331.88
2022-08-26T22:33:11.230Z,100328.44
2022-08-26T22:35:28.310Z,100320.16
2022-08-26T22:37:31.467Z,100332.13
2022-08-26T22:39:33.921Z,100334.59
2022-08-26T22:41:35.968Z,100327.75
2022-08-26T22:43:38.890Z,100328.03
2022-08-26T22:45:44.358Z,100331.19
2022-08-26T22:47:46.458Z,100328.06
2022-08-26T22:49:48.442Z,100329.22
2022-08-26T22:51:51.373Z,100325.97
2022-08-26T22:53:55.368Z,100325.66
2022-08-26T22:55:58.156Z,100324.31
2022-08-26T22:58:00.534Z,100321.28
2022-08-26T23:00:02.664Z,100315.78
2022-08-26T23:02:04.772Z,100321.22
2022-08-26T23:04:11.653Z,100312.81
2022-08-26T23:06:13.826Z,100306.47
2022-08-26T23:08:16.937Z,100320.91
2022-08-26T23:10:18.953Z,100311.56
2022-08-26T23:12:20.834Z,100304.16
2022-08-26T23:14:25.485Z,100293.09
2022-08-26T23:16:28.411Z,100297.72
2022-08-26T23:18:38.708Z,100302.81
2022-08-26T23:20:41.189Z,100299.75
2022-08-26T23:22:43.146Z,100302.22
2022-08-26T23:24:45.163Z,100287.78
2022-08-26T23:26:47.275Z,100290.03
2022-08-26T23:28:49.302Z,100283.03
2022-08-26T23:30:51.313Z,100288.84
2022-08-26T23:32:53.885Z,100284.47
2022-08-26T23:35:01.670Z,100287.06
2022-08-26T23:37:06.753Z,100276.91
2022-08-26T23:39:09.087Z,100272.63
2022-08-26T23:41:11.127Z,100274.16
2022-08-26T23:43:16.615Z,100270.69
2022-08-26T23:45:20.105Z,100271.50
2022-08-26T23:47:22.073Z,100267.16
2022-08-26T23:49:24.793Z,100274.25
2022-08-26T23:51:45.111Z,100266.09
2022-08-26T23:53:48.094Z,100258.38
2022-08-26T23:55:52.630Z,100263.38
2022-08-26T23:57:55.544Z,100257.06
2022-08-26T23:59:58.131Z,100250.75
